createdAt,value
2023-04-01T00:01:00.409Z,77.2909
2023-04-01T00:02:02.355Z,77.3722
2023-04-01T00:03:04.411Z,77.6020
2023-04-01T00:04:06.444Z,77.5335
2023-04-01T00:05:08.429Z,77.5532
2023-04-01T00:06:10.557Z,77.6064
2023-04-01T00:07:12.523Z,77.6472
2023-04-01T00:08:14.459Z,77.5294
2023-04-01T00:09:16.663Z,77.6289
2023-04-01T00:10:18.732Z,77.5307
2023-04-01T00:11:20.848Z,76.7168
2023-04-01T00:12:22.774Z,77.2858
2023-04-01T00:13:24.692Z,77.4043
2023-04-01T00:14:26.629Z,77.2047
2023-04-01T00:15:28.566Z,77.3761
2023-04-01T00:16:30.536Z,77.5875
2023-04-01T00:17:32.488Z,77.5825
2023-04-01T00:18:34.446Z,77.5731
2023-04-01T00:19:36.370Z,77.7737
2023-04-01T00:20:38.310Z,77.7176
2023-04-01T00:21:40.247Z,77.6120
2023-04-01T00:22:42.194Z,77.4876
2023-04-01T00:23:44.136Z,77.5895
2023-04-01T00:24:46.333Z,77.7304
2023-04-01T00:25:48.262Z,77.6078
2023-04-01T00:26:50.218Z,77.2554
2023-04-01T00:27:52.171Z,77.6075
2023-04-01T00:28:55.012Z,77.5473
2023-04-01T00:29:56.956Z,77.4326
2023-04-01T00:30:58.896Z,77.2273
2023-04-01T00:32:01.098Z,77.3189
2023-04-01T00:33:03.219Z,77.5028
2023-04-01T00:34:05.129Z,77.2022
2023-04-01T00:35:07.056Z,77.0932
2023-04-01T00:36:09.037Z,76.8549
2023-04-01T00:37:10.963Z,76.9487
2023-04-01T00:38:12.886Z,76.8002
2023-04-01T00:39:14.928Z,76.4135
2023-04-01T00:40:16.840Z,76.4852
2023-04-01T00:41:18.816Z,76.5805
2023-04-01T00:42:20.794Z,76.8219
2023-04-01T00:43:22.749Z,76.9760
2023-04-01T00:44:24.726Z,77.0728
2023-04-01T00:45:26.677Z,76.4383
2023-04-01T00:46:28.670Z,76.0855
2023-04-01T00:47:30.720Z,76.1935
2023-04-01T00:48:32.658Z,76.5009
2023-04-01T00:49:34.612Z,76.8287
2023-04-01T00:50:36.588Z,76.5660
2023-04-01T00:51:38.569Z,76.3196
2023-04-01T00:52:40.564Z,76.2322
2023-04-01T00:53:42.530Z,76.2682
2023-04-01T00:54:44.490Z,76.3316
2023-04-01T00:55:46.429Z,76.6015
2023-04-01T00:56:48.460Z,76.5117
2023-04-01T00:57:50.433Z,76.5435
2023-04-01T00:58:52.390Z,76.4589
2023-04-01T00:59:54.398Z,76.6896
2023-04-01T01:00:56.420Z,76.9307
2023-04-01T01:01:58.395Z,76.8593
2023-04-01T01:03:00.404Z,76.7957
2023-04-01T01:04:02.361Z,76.8207
2023-04-01T01:05:04.297Z,77.0336
2023-04-01T01:06:06.290Z,77.3279
2023-04-01T01:07:08.234Z,77.2519
2023-04-01T01:08:10.204Z,77.2270
2023-04-01T01:09:12.251Z,77.2533
2023-04-01T01:10:14.207Z,77.1314
2023-04-01T01:11:16.339Z,77.2781
2023-04-01T01:12:18.789Z,77.4296
2023-04-01T01:13:20.721Z,77.4126
2023-04-01T01:14:22.657Z,77.6260
2023-04-01T01:15:24.601Z,77.8119
2023-04-01T01:16:26.652Z,77.9763
2023-04-01T01:17:28.590Z,78.0269
2023-04-01T01:18:30.567Z,77.9743
2023-04-01T01:19:32.548Z,78.0010
2023-04-01T01:20:34.488Z,78.0610
2023-04-01T01:21:36.465Z,78.2701
2023-04-01T01:22:38.417Z,78.5078
2023-04-01T01:23:40.409Z,78.7204
2023-04-01T01:24:42.330Z,78.8295
2023-04-01T01:25:44.304Z,78.8206
2023-04-01T01:26:46.235Z,79.0097
2023-04-01T01:27:48.190Z,79.2452
2023-04-01T01:28:50.148Z,78.7926
2023-04-01T01:29:52.080Z,78.9108
2023-04-01T01:30:54.079Z,79.3926
2023-04-01T01:31:56.046Z,79.5385
2023-04-01T01:32:57.965Z,79.3069
2023-04-01T01:34:00.118Z,79.3275
2023-04-01T01:35:02.074Z,79.4845
2023-04-01T01:36:04.000Z,78.9475
2023-04-01T01:37:05.922Z,78.5522
2023-04-01T01:38:07.893Z,78.6020
2023-04-01T01:39:09.838Z,78.3608
2023-04-01T01:40:11.802Z,78.2823
2023-04-01T01:41:13.720Z,78.3452
2023-04-01T01:42:15.658Z,78.2402
2023-04-01T01:43:17.630Z,78.3421
2023-04-01T01:44:19.567Z,78.4699
2023-04-01T01:45:21.502Z,78.5900
2023-04-01T01:46:23.480Z,78.5484
2023-04-01T01:47:25.476Z,78.5141
2023-04-01T01:48:27.400Z,78.1648
2023-04-01T01:49:29.500Z,77.9490
2023-04-01T01:50:31.434Z,77.4784
2023-04-01T01:51:33.398Z,76.8351
2023-04-01T01:52:35.375Z,76.9807
2023-04-01T01:53:37.351Z,77.0656
2023-04-01T01:54:39.295Z,77.4843
2023-04-01T01:55:41.273Z,77.4645
2023-04-01T01:56:43.291Z,77.2454
2023-04-01T01:57:45.258Z,77.1117
2023-04-01T01:58:47.237Z,77.0670
2023-04-01T01:59:49.237Z,77.2329
2023-04-01T02:00:51.200Z,77.1055
2023-04-01T02:01:53.196Z,77.2089
2023-04-01T02:02:55.201Z,77.5585
2023-04-01T02:03:57.158Z,77.3226
2023-04-01T02:04:59.182Z,77.3675
2023-04-01T02:05:59.739Z,77.3441
2023-04-01T02:07:01.674Z,76.7557
2023-04-01T02:08:03.629Z,76.5439
2023-04-01T02:09:05.817Z,76.8349
2023-04-01T02:10:07.811Z,76.7929
2023-04-01T02:11:21.938Z,76.9326
2023-04-01T02:12:23.938Z,76.4025
2023-04-01T02:13:25.904Z,76.0620
2023-04-01T02:14:28.011Z,75.5640
2023-04-01T02:15:30.166Z,75.6592
2023-04-01T02:16:32.281Z,75.6134
2023-04-01T02:17:34.333Z,75.9500
2023-04-01T02:18:36.370Z,75.6430
2023-04-01T02:19:38.399Z,75.3945
2023-04-01T02:20:40.426Z,75.5064
2023-04-01T02:21:42.431Z,75.3449
2023-04-01T02:22:44.447Z,75.4990
2023-04-01T02:23:46.587Z,75.6572
2023-04-01T02:24:48.618Z,76.0334
2023-04-01T02:25:50.821Z,75.7840
2023-04-01T02:26:52.952Z,75.7382
2023-04-01T02:27:55.008Z,75.8969
2023-04-01T02:28:57.054Z,75.3977
2023-04-01T02:29:59.155Z,74.5900
2023-04-01T02:31:01.315Z,74.8144
2023-04-01T02:32:04.022Z,75.2282
2023-04-01T02:33:06.197Z,75.1172
2023-04-01T02:34:08.254Z,74.8269
2023-04-01T02:35:10.283Z,74.1744
2023-04-01T02:36:12.497Z,74.0780
2023-04-01T02:39:37.780Z,73.9055
2023-04-01T02:40:39.762Z,74.2763
2023-04-01T02:41:41.809Z,74.6893
2023-04-01T02:42:43.808Z,75.0056
2023-04-01T02:43:45.781Z,75.3829
2023-04-01T02:44:47.766Z,75.6427
2023-04-01T02:45:49.738Z,76.2036
2023-04-01T02:46:51.906Z,76.1884
2023-04-01T02:47:53.936Z,76.5448
2023-04-01T02:48:55.978Z,76.6985
2023-04-01T02:49:57.947Z,77.3613
2023-04-01T02:51:00.012Z,77.3577
2023-04-01T02:52:02.009Z,77.4059
2023-04-01T02:53:03.988Z,77.0715
2023-04-01T02:54:05.979Z,77.5973
2023-04-01T02:55:07.995Z,77.4514
2023-04-01T02:56:09.943Z,77.1160
2023-04-01T02:57:11.982Z,77.2373
2023-04-01T02:58:13.937Z,77.0424
2023-04-01T02:59:15.929Z,77.6071
2023-04-01T03:00:17.898Z,76.9408
2023-04-01T03:01:19.879Z,76.5404
2023-04-01T03:02:21.888Z,76.1267
2023-04-01T03:03:23.883Z,75.7992
2023-04-01T03:04:25.878Z,76.0288
2023-04-01T03:05:27.827Z,76.0820
2023-04-01T03:06:30.188Z,75.7916
2023-04-01T03:07:32.200Z,76.0773
2023-04-01T03:08:34.122Z,75.4883
2023-04-01T03:09:36.225Z,75.3925
2023-04-01T03:10:38.184Z,75.2193
2023-04-01T03:11:40.127Z,75.0775
2023-04-01T03:12:42.143Z,74.8938
2023-04-01T03:13:42.558Z,75.0395
2023-04-01T03:14:44.508Z,74.9221
2023-04-01T03:15:46.717Z,75.3439
2023-04-01T03:16:48.681Z,75.4654
2023-04-01T03:17:50.667Z,75.6536
2023-04-01T03:18:52.688Z,75.8137
2023-04-01T03:19:54.650Z,75.9237
2023-04-01T03:20:56.607Z,75.8641
2023-04-01T03:21:58.568Z,75.6253
2023-04-01T03:23:00.540Z,75.3182
2023-04-01T03:24:02.731Z,75.6430
2023-04-01T03:25:04.707Z,76.0043
2023-04-01T03:26:06.671Z,76.1318
2023-04-01T03:27:08.620Z,75.7645
2023-04-01T03:28:10.633Z,75.7102
2023-04-01T03:29:12.632Z,75.6485
2023-04-01T03:30:14.636Z,75.3716
2023-04-01T03:31:16.641Z,75.0551
2023-04-01T03:32:18.653Z,75.6651
2023-04-01T03:33:20.734Z,75.9497
2023-04-01T03:34:22.733Z,76.0032
2023-04-01T03:35:24.827Z,75.4087
2023-04-01T03:36:26.876Z,75.3446
2023-04-01T03:37:28.854Z,75.1984
2023-04-01T03:38:30.954Z,75.2681
2023-04-01T03:39:32.969Z,75.6550
2023-04-01T03:40:35.071Z,75.8797
2023-04-01T03:41:37.072Z,75.7376
2023-04-01T03:42:39.080Z,75.4404
2023-04-01T03:43:41.129Z,75.5375
2023-04-01T03:44:43.072Z,75.8719
2023-04-01T03:45:45.133Z,75.7957
2023-04-01T03:46:47.164Z,75.2955
2023-04-01T03:47:49.159Z,75.3648
2023-04-01T03:48:49.243Z,75.5405
2023-04-01T03:49:51.224Z,75.3607
2023-04-01T03:50:53.459Z,75.0496
2023-04-01T03:51:55.410Z,75.2112
2023-04-01T03:52:57.414Z,75.0061
2023-04-01T03:53:59.413Z,74.4887
2023-04-01T03:55:01.498Z,74.4022
2023-04-01T03:56:03.677Z,74.1991
2023-04-01T03:57:05.756Z,74.4962
2023-04-01T03:58:07.760Z,74.5347
2023-04-01T03:59:09.736Z,74.1979
2023-04-01T04:00:11.714Z,74.2510
2023-04-01T04:01:13.691Z,74.3679
2023-04-01T04:02:15.667Z,74.3187
2023-04-01T04:03:17.762Z,74.4968
2023-04-01T04:04:19.923Z,74.9262
2023-04-01T04:05:21.990Z,75.6617
2023-04-01T04:06:23.950Z,76.0211
2023-04-01T04:07:25.895Z,76.2509
2023-04-01T04:08:27.881Z,75.8871
2023-04-01T04:09:29.898Z,74.9073
2023-04-01T04:10:31.901Z,74.3282
2023-04-01T04:11:33.948Z,74.7262
2023-04-01T04:12:35.922Z,74.3436
2023-04-01T04:13:36.951Z,74.5525
2023-04-01T04:14:38.949Z,74.4530
2023-04-01T04:15:41.281Z,74.0897
2023-04-01T04:16:43.207Z,74.1570
2023-04-01T04:17:45.228Z,74.1719
2023-04-01T04:18:47.160Z,74.4478
2023-04-01T04:19:49.162Z,74.2033
2023-04-01T04:20:51.127Z,73.9976
2023-04-01T04:21:53.168Z,74.1187
2023-04-01T04:22:55.091Z,74.2373
2023-04-01T04:23:57.128Z,73.4450
2023-04-01T04:24:59.122Z,73.5751
2023-04-01T04:26:01.068Z,73.7753
2023-04-01T04:27:03.128Z,73.6394
2023-04-01T04:28:05.083Z,73.2794
2023-04-01T04:29:07.055Z,72.9597
2023-04-01T04:30:09.041Z,73.3832
2023-04-01T04:31:10.987Z,73.2909
2023-04-01T04:32:12.921Z,73.4155
2023-04-01T04:33:14.932Z,73.7619
2023-04-01T04:34:16.927Z,73.9759
2023-04-01T04:35:18.936Z,74.9568
2023-04-01T04:36:20.995Z,76.8071
2023-04-01T04:37:22.977Z,77.6369
2023-04-01T04:38:25.050Z,77.7109
2023-04-01T04:39:27.058Z,77.7840
2023-04-01T04:40:29.099Z,77.6546
2023-04-01T04:41:31.145Z,77.4994
2023-04-01T04:42:33.220Z,76.8758
2023-04-01T04:43:35.254Z,77.3645
2023-04-01T04:44:37.232Z,77.9844
2023-04-01T04:45:39.417Z,78.1267
2023-04-01T04:46:41.451Z,77.5195
2023-04-01T04:47:43.398Z,77.8655
2023-04-01T04:48:45.482Z,78.1953
2023-04-01T04:49:47.485Z,78.1420
2023-04-01T04:50:49.545Z,77.8594
2023-04-01T04:51:51.518Z,78.0461
2023-04-01T04:52:53.491Z,78.2187
2023-04-01T04:53:55.520Z,78.4219
2023-04-01T04:54:57.480Z,78.8180
2023-04-01T04:55:59.486Z,78.7022
2023-04-01T04:57:01.468Z,78.5510
2023-04-01T04:58:03.447Z,78.4233
2023-04-01T04:59:05.399Z,79.0646
2023-04-01T05:00:07.359Z,79.3677
2023-04-01T05:01:09.715Z,79.6314
2023-04-01T05:02:11.783Z,79.9179
2023-04-01T05:03:14.004Z,80.2611
2023-04-01T05:04:16.033Z,80.5228
2023-04-01T05:05:18.006Z,80.2185
2023-04-01T05:06:22.208Z,79.1661
2023-04-01T05:07:21.996Z,79.4703
2023-04-01T05:08:24.238Z,79.6836
2023-04-01T05:09:26.205Z,79.7767
2023-04-01T05:10:28.181Z,79.7746
2023-04-01T05:11:30.163Z,79.7319
2023-04-01T05:12:32.089Z,79.4842
2023-04-01T05:13:34.055Z,79.6082
2023-04-01T05:14:36.036Z,79.7442
2023-04-01T05:16:37.332Z,80.1217
2023-04-01T05:17:39.358Z,80.7507
2023-04-01T05:18:41.291Z,81.0833
2023-04-01T05:19:43.251Z,80.9039
2023-04-01T05:20:45.442Z,81.1204
2023-04-01T05:21:47.416Z,81.4120
2023-04-01T05:22:49.356Z,81.1552
2023-04-01T05:23:51.484Z,81.4251
2023-04-01T05:24:53.434Z,80.8343
2023-04-01T05:25:55.402Z,80.7820
2023-04-01T05:26:57.497Z,80.9758
2023-04-01T05:27:59.447Z,81.1127
2023-04-01T05:29:01.416Z,81.0369
2023-04-01T05:32:16.875Z,80.9482
2023-04-01T05:33:19.079Z,81.6910
2023-04-01T05:34:21.109Z,82.1380
2023-04-01T05:35:23.103Z,81.6510
2023-04-01T05:36:25.092Z,81.9781
2023-04-01T05:37:27.866Z,82.5146
2023-04-01T05:38:29.827Z,82.5670
2023-04-01T05:39:31.783Z,82.6750
2023-04-01T05:40:33.765Z,82.7192
2023-04-01T05:41:35.722Z,82.8468
2023-04-01T05:42:38.478Z,82.9137
2023-04-01T05:43:40.502Z,83.0955
2023-04-01T05:44:42.466Z,83.2163
2023-04-01T05:45:44.437Z,83.0712
2023-04-01T05:46:46.484Z,82.6112
2023-04-01T05:47:48.511Z,82.7203
2023-04-01T05:48:50.528Z,82.5376
2023-04-01T05:49:52.497Z,82.6171
2023-04-01T05:50:54.550Z,81.9736
2023-04-01T05:51:56.537Z,81.3775
2023-04-01T05:52:58.555Z,80.9872
2023-04-01T05:54:00.536Z,81.3156
2023-04-01T05:55:02.522Z,81.3302
2023-04-01T05:56:04.562Z,81.2191
2023-04-01T05:57:06.578Z,81.6414
2023-04-01T05:58:08.604Z,82.0078
2023-04-01T05:59:10.684Z,82.0416
2023-04-01T06:00:12.667Z,81.9174
2023-04-01T06:01:16.450Z,81.8509
2023-04-01T06:02:15.244Z,82.0092
2023-04-01T06:03:17.505Z,81.8468
2023-04-01T06:04:19.623Z,82.0885
2023-04-01T06:05:21.671Z,82.3371
2023-04-01T06:06:23.686Z,82.7064
2023-04-01T06:19:20.136Z,82.5689
2023-04-01T06:20:09.034Z,80.4250
2023-04-01T06:21:11.104Z,80.6985
2023-04-01T06:22:13.102Z,80.8522
2023-04-01T06:23:15.172Z,80.7832
2023-04-01T06:24:17.492Z,80.8450
2023-04-01T06:25:19.880Z,80.7674
2023-04-01T06:26:21.861Z,80.7506
2023-04-01T06:27:24.045Z,80.2018
2023-04-01T06:28:26.158Z,80.5272
2023-04-01T06:29:28.197Z,80.6182
2023-04-01T06:30:30.223Z,80.8540
2023-04-01T06:31:32.308Z,80.7840
2023-04-01T06:32:34.430Z,80.7413
2023-04-01T06:33:36.449Z,80.7079
2023-04-01T06:34:38.604Z,80.4986
2023-04-01T06:35:40.722Z,80.1395
2023-04-01T06:36:42.799Z,79.1446
2023-04-01T06:37:44.828Z,78.5637
2023-04-01T06:38:46.830Z,78.3831
2023-04-01T06:39:48.857Z,77.3728
2023-04-01T06:40:51.158Z,77.1825
2023-04-01T06:41:53.101Z,77.5031
2023-04-01T06:42:55.113Z,77.7889
2023-04-01T06:43:57.319Z,77.8936
2023-04-01T06:44:59.264Z,78.0936
2023-04-01T06:46:01.404Z,78.4790
2023-04-01T06:47:03.347Z,78.5896
2023-04-01T06:48:03.623Z,78.2817
2023-04-01T06:49:05.596Z,78.2430
2023-04-01T06:50:07.793Z,78.0934
2023-04-01T06:51:09.814Z,78.2713
2023-04-01T06:52:37.520Z,77.5989
2023-04-01T06:53:13.660Z,76.7881
2023-04-01T06:54:15.657Z,76.5132
2023-04-01T06:55:17.860Z,76.8222
2023-04-01T06:56:19.914Z,76.6107
2023-04-01T06:57:48.968Z,76.4169
2023-04-01T06:58:23.713Z,76.2618
2023-04-01T06:59:26.019Z,76.0883
2023-04-01T07:00:27.921Z,75.7968
2023-04-01T07:01:30.088Z,75.5211
2023-04-01T07:02:32.109Z,75.5171
2023-04-01T07:03:34.178Z,75.6595
2023-04-01T07:04:36.282Z,75.6827
2023-04-01T07:05:38.404Z,75.8512
2023-04-01T07:06:40.450Z,76.2601
2023-04-01T07:08:37.927Z,76.3019
2023-04-01T07:09:06.232Z,76.2432
2023-04-01T07:10:08.218Z,76.5850
2023-04-01T07:11:10.224Z,76.5737
2023-04-01T07:14:52.196Z,76.3867
2023-04-01T07:15:22.056Z,75.8236
2023-04-01T07:16:24.682Z,76.1865
2023-04-01T07:17:26.791Z,76.7063
2023-04-01T07:22:03.021Z,77.0339
2023-04-01T07:22:38.113Z,78.7198
2023-04-01T07:37:00.228Z,79.2489
2023-04-01T07:38:02.257Z,81.9053
2023-04-01T07:39:04.305Z,81.5986
2023-04-01T12:20:12.469Z,73.2509
2023-04-01T12:20:57.462Z,73.8221
2023-04-01T12:21:59.551Z,74.1716
2023-04-01T12:23:04.048Z,74.4457
2023-04-01T12:31:47.561Z,74.6502
2023-04-01T12:32:15.733Z,77.6352
2023-04-01T12:34:27.725Z,78.2923
2023-04-01T12:35:19.786Z,76.9300
2023-04-01T12:36:23.070Z,76.1589
2023-04-01T12:37:25.085Z,76.4197
2023-04-01T12:48:43.791Z,75.8835
2023-04-01T12:49:45.811Z,69.4302
2023-04-01T12:50:48.234Z,69.8116
2023-04-01T12:51:50.229Z,69.3139
2023-04-01T12:52:52.368Z,68.6545
2023-04-01T12:53:54.404Z,68.7524
2023-04-01T12:54:57.507Z,68.6469
2023-04-01T12:55:57.967Z,68.0777
2023-04-01T12:57:00.007Z,68.0478
2023-04-01T12:58:02.048Z,67.7151
2023-04-01T12:59:02.126Z,68.6447
2023-04-01T13:01:22.260Z,67.6585
2023-04-01T13:02:24.503Z,67.4267
2023-04-01T13:04:08.722Z,66.9724
2023-04-01T13:04:53.747Z,67.3897
2023-04-01T13:05:55.753Z,67.6954
2023-04-01T13:06:57.851Z,67.6506
2023-04-01T13:07:59.980Z,67.3240
2023-04-01T13:09:02.074Z,67.1647
2023-04-01T13:10:04.091Z,66.6082
2023-04-01T13:11:06.177Z,66.8398
2023-04-01T13:12:06.341Z,66.7968
2023-04-01T13:13:08.379Z,67.6424
2023-04-01T13:15:26.196Z,67.3228
2023-04-01T13:16:28.290Z,67.4249
2023-04-01T13:17:30.636Z,67.6163
2023-04-01T13:18:32.758Z,67.8387
2023-04-01T13:19:34.800Z,67.6903
2023-04-01T13:20:36.965Z,67.3180
2023-04-01T13:21:38.971Z,66.8587
2023-04-01T13:22:41.029Z,66.9728
2023-04-01T13:23:43.032Z,67.1912
2023-04-01T13:24:45.091Z,67.5993
2023-04-01T13:25:47.266Z,67.3570
2023-04-01T13:26:49.336Z,67.1086
2023-04-01T13:27:51.424Z,67.5028
2023-04-01T13:28:53.659Z,66.5178
2023-04-01T13:29:55.636Z,66.6586
2023-04-01T13:30:58.455Z,66.6566
2023-04-01T13:32:00.479Z,66.6963
2023-04-01T13:33:02.727Z,66.3580
2023-04-01T13:34:04.791Z,66.2821
2023-04-01T13:35:06.273Z,66.5460
2023-04-01T13:36:08.505Z,66.7215
2023-04-01T13:37:10.580Z,67.0760
2023-04-01T13:38:13.393Z,66.8605
2023-04-01T13:39:15.403Z,66.7239
2023-04-01T13:40:18.290Z,66.7887
2023-04-01T13:41:20.346Z,67.0176
2023-04-01T13:42:22.369Z,67.0521
2023-04-01T13:43:24.391Z,67.0769
2023-04-01T13:44:26.457Z,66.8836
2023-04-01T13:45:28.817Z,67.1061
2023-04-01T13:46:30.811Z,66.5140
2023-04-01T13:47:32.918Z,65.9771
2023-04-01T13:48:34.921Z,66.1077
2023-04-01T13:49:36.907Z,66.2299
2023-04-01T13:50:38.971Z,66.6862
2023-04-01T13:51:41.018Z,66.7012
2023-04-01T13:52:43.031Z,66.7342
2023-04-01T13:53:45.050Z,67.4940
2023-04-01T13:54:47.041Z,67.8831
2023-04-01T13:55:47.557Z,67.3412
2023-04-01T13:56:49.652Z,68.1509
2023-04-01T13:57:51.660Z,68.2317
2023-04-01T13:58:53.675Z,68.2705
2023-04-01T13:59:55.708Z,68.2433
2023-04-01T14:00:57.803Z,67.3355
2023-04-01T14:01:59.841Z,67.2244
2023-04-01T14:03:01.968Z,67.0875
2023-04-01T14:04:04.148Z,66.9130
2023-04-01T14:05:06.182Z,67.0432
2023-04-01T14:06:08.217Z,67.7577
2023-04-01T14:07:10.304Z,67.7340
2023-04-01T14:08:12.285Z,67.7593
2023-04-01T14:09:14.423Z,68.3711
2023-04-01T14:10:16.448Z,68.5595
2023-04-01T14:11:18.439Z,68.7317
2023-04-01T14:12:20.477Z,68.6464
2023-04-01T14:13:22.673Z,68.8178
2023-04-01T14:14:24.688Z,68.5811
2023-04-01T14:15:26.669Z,68.5059
2023-04-01T14:16:28.781Z,68.1272
2023-04-01T14:17:31.073Z,68.8277
2023-04-01T14:18:33.150Z,69.0519
2023-04-01T14:19:37.016Z,69.1395
2023-04-01T14:20:35.670Z,69.5143
2023-04-01T14:25:23.730Z,69.2546
2023-04-01T14:26:25.785Z,73.9364
2023-04-01T14:36:10.614Z,74.3918
2023-04-01T14:37:12.608Z,87.7566
2023-04-01T14:38:14.697Z,87.1071
2023-04-01T14:39:15.261Z,86.2751
2023-04-01T14:40:17.355Z,86.8635
2023-04-01T16:26:17.112Z,86.1819
2023-04-01T16:26:58.645Z,75.5660
2023-04-01T16:28:00.669Z,76.4228
2023-04-01T16:29:02.662Z,74.9935
2023-04-01T16:30:04.738Z,76.6545
2023-04-01T16:31:06.711Z,76.9099
2023-04-01T16:32:08.870Z,75.3516
2023-04-01T16:33:10.915Z,75.3524
2023-04-01T16:34:12.949Z,76.4907
2023-04-01T17:57:50.377Z,76.8348
2023-04-01T17:58:35.675Z,82.4622
2023-04-01T17:59:38.349Z,82.7792
2023-04-01T18:00:53.017Z,83.1964
2023-04-01T18:01:41.375Z,83.2576
2023-04-01T18:02:43.413Z,83.3581
2023-04-01T18:03:45.855Z,83.0801
2023-04-01T18:04:48.200Z,82.8501
2023-04-01T18:05:50.225Z,82.7944
2023-04-01T18:06:52.222Z,82.9697
2023-04-01T18:07:54.347Z,83.1782
2023-04-01T18:08:56.335Z,83.3182
2023-04-01T18:27:58.756Z,83.2066
2023-04-01T18:28:47.293Z,83.6264
2023-04-01T18:29:50.576Z,83.2935
2023-04-01T18:30:52.615Z,82.8984
2023-04-01T18:31:54.902Z,83.0640
2023-04-01T18:32:55.290Z,82.6461
2023-04-01T18:33:57.295Z,82.1721
2023-04-01T18:34:59.547Z,82.7977
2023-04-01T18:36:01.619Z,82.4485
2023-04-01T18:37:03.870Z,82.4860
2023-04-01T18:38:05.844Z,82.5589
2023-04-01T18:39:07.895Z,82.6566
2023-04-01T18:40:10.036Z,82.6968
2023-04-01T18:41:12.128Z,82.5886
2023-04-01T18:42:14.120Z,82.2126
2023-04-01T18:43:16.235Z,82.2910
2023-04-01T18:44:18.327Z,82.2460
2023-04-01T18:45:20.328Z,82.0062
2023-04-01T18:46:22.460Z,81.9911
2023-04-01T18:47:24.800Z,82.0585
2023-04-01T18:48:26.905Z,82.2294
2023-04-01T18:49:29.154Z,81.5924
2023-04-01T18:50:31.166Z,81.1661
2023-04-01T18:51:33.177Z,81.5654
2023-04-01T18:52:35.155Z,81.7711
2023-04-01T18:53:37.272Z,81.7794
2023-04-01T18:54:39.259Z,81.4795
2023-04-01T18:55:41.251Z,82.1313
2023-04-01T18:56:43.253Z,82.0410
2023-04-01T18:57:45.235Z,81.7256
2023-04-01T18:58:47.221Z,81.6967
2023-04-01T18:59:49.508Z,81.7194
2023-04-01T19:00:51.511Z,81.9795
2023-04-01T19:06:27.371Z,81.9412
2023-04-01T19:07:19.315Z,81.7201
2023-04-01T19:08:21.398Z,81.9405
2023-04-01T19:09:23.529Z,82.1187
2023-04-01T19:10:25.521Z,81.8388
2023-04-01T19:11:27.604Z,82.0824
2023-04-01T19:12:29.654Z,81.9355
2023-04-01T19:13:31.633Z,82.1368
2023-04-01T19:14:33.714Z,81.6686
2023-04-01T19:15:35.826Z,81.6940
2023-04-01T19:16:37.893Z,81.8452
2023-04-01T19:17:39.894Z,81.9003
2023-04-01T19:18:41.891Z,81.9461
2023-04-01T19:19:43.901Z,82.0375
2023-04-01T19:20:45.910Z,81.7217
2023-04-01T19:21:48.052Z,81.4144
2023-04-01T19:22:50.025Z,81.7428
2023-04-01T19:23:52.042Z,82.0623
2023-04-01T19:24:54.087Z,82.3689
2023-04-01T19:25:56.059Z,82.3390
2023-04-01T19:26:58.066Z,82.6953
2023-04-01T19:28:04.088Z,82.5929
2023-04-01T19:29:06.353Z,82.5857
2023-04-01T19:30:08.371Z,82.7373
2023-04-01T19:31:10.498Z,82.5273
2023-04-01T19:32:12.788Z,82.4746
2023-04-01T19:33:14.804Z,82.5168
2023-04-01T19:34:16.825Z,82.4330
2023-04-01T19:35:18.880Z,82.2123
2023-04-01T19:36:20.912Z,82.2261
2023-04-01T19:37:23.201Z,82.1467
2023-04-01T19:38:25.197Z,82.0846
2023-04-01T19:39:27.208Z,81.9543
2023-04-01T19:40:29.217Z,82.1992
2023-04-01T19:41:32.421Z,82.3899
2023-04-01T19:42:34.447Z,82.0340
2023-04-01T19:43:36.533Z,82.0361
2023-04-01T19:44:38.525Z,82.1261
2023-04-01T19:45:40.532Z,81.8571
2023-04-01T19:46:42.791Z,82.0759
2023-04-01T19:47:44.948Z,81.8168
2023-04-01T19:48:46.976Z,82.3010
2023-04-01T19:49:47.240Z,82.3119
2023-04-01T19:50:49.246Z,82.0343
2023-04-01T19:51:51.349Z,82.2157
2023-04-01T19:52:53.368Z,82.4459
2023-04-01T19:53:55.374Z,82.5132
2023-04-01T19:54:57.384Z,82.9603
2023-04-01T19:55:59.394Z,83.1445
2023-04-01T19:57:01.436Z,83.1151
2023-04-01T19:58:05.375Z,82.5900
2023-04-01T19:59:05.055Z,82.7506
2023-04-01T20:00:07.086Z,82.8756
2023-04-01T20:01:09.061Z,82.9877
2023-04-01T20:02:11.080Z,82.8451
2023-04-01T20:03:13.161Z,82.8673
2023-04-01T20:04:15.192Z,82.9702
2023-04-01T20:05:17.275Z,83.1328
2023-04-01T20:06:19.229Z,82.7248
2023-04-01T20:07:21.248Z,82.8104
2023-04-01T20:08:23.235Z,82.9860
2023-04-01T20:09:25.230Z,82.9168
2023-04-01T20:10:47.290Z,83.2482
2023-04-01T20:11:38.992Z,83.1947
2023-04-01T20:12:41.098Z,83.2119
2023-04-01T20:13:43.195Z,83.4987
2023-04-01T20:14:45.719Z,83.5173
2023-04-01T20:15:47.699Z,83.5915
2023-04-01T20:16:49.702Z,83.5492
2023-04-01T20:17:51.835Z,83.1523
2023-04-01T20:18:53.941Z,83.1315
2023-04-01T20:19:55.929Z,82.9973
2023-04-01T20:20:57.924Z,82.7373
2023-04-01T20:22:00.034Z,82.6621
2023-04-01T20:23:18.415Z,82.7436
2023-04-01T20:24:12.440Z,83.3283
2023-04-01T20:25:07.256Z,83.3165
2023-04-01T20:26:05.856Z,83.5273
2023-04-01T20:27:08.441Z,83.4779
2023-04-01T20:28:10.422Z,83.1503
2023-04-01T20:29:12.452Z,83.4413
2023-04-01T20:32:22.263Z,83.5286
2023-04-01T20:33:07.449Z,83.3874
2023-04-01T20:34:09.432Z,83.4829
2023-04-01T20:35:11.443Z,83.6440
2023-04-01T20:36:13.723Z,83.4802
2023-04-01T20:37:15.710Z,83.3569
2023-04-01T20:38:17.671Z,83.5058
2023-04-01T20:39:19.797Z,83.5234
2023-04-01T20:40:21.997Z,83.1925
2023-04-01T20:41:24.008Z,83.2954
2023-04-01T20:42:25.987Z,83.4037
2023-04-01T20:43:28.003Z,83.5512
2023-04-01T20:44:29.965Z,83.3872
2023-04-01T20:45:32.342Z,83.3265
2023-04-01T20:46:34.482Z,83.5593
2023-04-01T20:47:36.948Z,83.5932
2023-04-01T20:48:38.911Z,83.5812
2023-04-01T20:49:40.914Z,83.3316
2023-04-01T20:50:43.085Z,83.4027
2023-04-01T20:51:45.074Z,83.3416
2023-04-01T20:53:50.370Z,83.2041
2023-04-01T20:55:06.051Z,83.0268
2023-04-01T20:56:08.172Z,83.0324
2023-04-01T20:57:10.396Z,82.4174
2023-04-01T20:58:12.494Z,82.6607
2023-04-01T20:59:14.475Z,82.8823
2023-04-01T21:00:16.481Z,82.8983
2023-04-01T21:01:18.529Z,82.7251
2023-04-01T21:02:20.546Z,82.0046
2023-04-01T21:03:22.536Z,81.6084
2023-04-01T21:04:24.570Z,81.7767
2023-04-01T21:05:26.736Z,81.9357
2023-04-01T21:06:28.745Z,82.0209
2023-04-01T21:07:30.749Z,81.7805
2023-04-01T21:12:23.600Z,81.3831
2023-04-01T21:13:12.045Z,81.9103
2023-04-01T21:14:14.008Z,81.7092
2023-04-01T21:15:16.229Z,81.6710
2023-04-01T21:16:18.442Z,82.1074
2023-04-01T21:17:20.415Z,82.0550
2023-04-01T21:18:22.519Z,81.6961
2023-04-01T21:19:24.713Z,81.5363
2023-04-01T21:20:26.715Z,81.3029
2023-04-01T21:21:28.931Z,81.1091
2023-04-01T21:22:30.899Z,80.4898
2023-04-01T21:23:32.930Z,80.8754
2023-04-01T21:24:34.901Z,80.5008
2023-04-01T21:25:37.082Z,80.1001
2023-04-01T21:26:39.312Z,80.0025
2023-04-01T21:27:41.254Z,80.2164
2023-04-01T21:28:43.260Z,79.5853
2023-04-01T21:29:45.244Z,79.5245
2023-04-01T21:30:47.225Z,79.2800
2023-04-01T21:31:49.228Z,79.5268
2023-04-01T21:32:51.396Z,79.4288
2023-04-01T21:33:53.378Z,79.9634
2023-04-01T21:34:55.386Z,79.8917
2023-04-01T21:35:57.416Z,79.1799
2023-04-01T21:36:59.391Z,79.8754
2023-04-01T21:38:22.533Z,79.9585
2023-04-01T21:39:04.026Z,79.8884
2023-04-01T21:40:06.123Z,79.8133
2023-04-01T21:41:08.108Z,79.3399
2023-04-01T21:42:08.289Z,79.4450
2023-04-01T21:43:42.803Z,79.9745
2023-04-01T21:44:10.763Z,79.8201
2023-04-01T21:45:12.983Z,80.0417
2023-04-01T21:46:15.151Z,79.9835
2023-04-01T21:47:17.170Z,80.0034
2023-04-01T21:48:19.446Z,79.8440
2023-04-01T21:49:21.467Z,80.0888
2023-04-01T21:50:23.504Z,80.2742
2023-04-01T21:51:25.542Z,80.4202
2023-04-01T21:52:27.807Z,80.3022
2023-04-01T21:53:29.948Z,80.1316
2023-04-01T21:54:31.986Z,80.0850
2023-04-01T21:55:34.238Z,80.3523
2023-04-01T21:56:36.348Z,80.3905